Page, AZ

6:04 AM MST on July 29, 2014 (GMT -0700)
Page Municipal (KPGA) Elev 4308 ft | 36.92 °N, 111.45 °W | Change Station

Current weather conditions updated 11 minutes ago

Clear
Clear
72 °F
Feels Like 72 °F
N
0
Wind Variable Wind from North

Today is forecast to be nearly the same temperature as yesterday.

Today
High -- | Low -- °F
--% Chance of Precip.
Yesterday
High -- | Low -- °F
Precip. -- in
5:28 AM 7:35 PM
Waxing Crescent, 6% visible
Pressure 30.01 in
Visibility 10.0 miles
Clouds Clear
Dew Point 52 °F
Humidity 49%
Rainfall 0.00 in
Snow Depth Not available.
UV 0 out of 12
Pollen 5.20 out of 12
Air Quality Not available.
Flu Activity Not available.
METAR KPGA 291253Z AUTO 00000KT 10SM CLR 22/11 A3021 RMK AO2 SLP161 T02220111

More Conditions Fewer Conditions

Pressure 30.01 in
Visibility 10.0 miles
Clouds Clear
Dew Point 52 °F
Humidity 49%
Rainfall 0.00 in
Snow Depth Not available.
UV 0 out of 12
Pollen 5.20 out of 12
Air Quality Not available.
Flu Activity Not available.
METAR KPGA 291253Z AUTO 00000KT 10SM CLR 22/11 A3021 RMK AO2 SLP161 T02220111

More Conditions Fewer Conditions

10-Day Weather Forecast

Almanac

Astronomy

Jul. 29, 2014 Rise Set
Actual Time 5:28 AM MST 7:35 PM MST
Civil Twilight 5:00 AM MST 8:04 PM MST
Nautical Twilight 4:24 AM MST 8:39 PM MST
Astronomical Twilight 3:46 AM MST 9:17 PM MST
Moon 8:03 AM MST 8:55 PM MST
Length of Visible Light 15h 04m
Length of Day
14h 06m
Tomorrow will be 1m 42s shorter.
Waxing Crescent, 6% of the Moon is Illuminated
Today
Waxing Crescent
Aug 3
First Quarter
Aug 10
Full
Aug 17
Last Quarter
Aug 25
New

Today's Extremes

State Highs State Lows

Community

WunderPhotos

Upload Photos

1,738,706 photos uploaded!

Nearby

Snow Depth

Station Depth Elevation
Snowslide Canyon 0 in 9730 ft
White Horse Lake 1 in 7180 ft
Mormon Mountain 0 in 7500 ft
Promontory 0 in 7930 ft
Heber 0 in 7640 ft

Earthquake Activity

City Distance Mag. Time & Date
No recent earthquake activity has been reported nearby.
Minimum magnitude displayed is 2.5.

Coastal Water Temperatures

Place Temperature
No Stations Reporting

Nearby Weather Stations

Station Location Temp. Heat Index Dew Point Humidity Wind Precip. Elev Updated Type
Page Arizona, Page, AZ 70.1 °F 76 °F 55 °F 58% SE  at  0.0 mph 0.00 in / hr 4172 ft 6:04 AM MST Rapid Fire
RAWS PARIA POINT AZ, Page, AZ 60 °F - 49 °F 67% SSW  at  1 mph 0.00 in / hr 7234 ft 5:00 AM MST MADIS

Show More Stations Show Fewer Stations